CheckWX is a tool to help pilots better visualize weather data.  It is not intended as a substitute for an official pre-flight weather briefing.

23:35:43 UTC

D55 METAR
Robertson Field Airport
Langdon, North Dakota, USA
Current

21 mins ago

KD55 182315Z AUTO 28009KT 10SM CLR 09/07 A2941 RMK AO2
Observed
Oct-18 @ 23:15 UTC
Wind
  • 280° at 9 KTS
Visibility
10 SM
Flight Rules
VFR
Cloud Levels
  • Clear skies
Temperature
C / 48°F
Dewpoint
C / 45°F
Humidity
87%
Altimeter
29.41" Hg
Pressure
995.92 hPa
Previous

41 mins ago

KD55 182255Z AUTO 24008KT 10SM CLR 09/07 A2941 RMK AO2
Observed
Oct-18 @ 22:55 UTC
Wind
  • 240° at 8 KTS
Visibility
10 SM
Flight Rules
VFR
Cloud Levels
  • Clear skies
Temperature
C / 48°F
Dewpoint
C / 45°F
Humidity
87%
Altimeter
29.41" Hg
Pressure
995.92 hPa
Previous

1 hour ago

KD55 182235Z AUTO 23007KT 10SM CLR 10/08 A2941 RMK AO2
Observed
Oct-18 @ 22:35 UTC
Wind
  • 230° at 7 KTS
Visibility
10 SM
Flight Rules
VFR
Cloud Levels
  • Clear skies
Temperature
10°C / 50°F
Dewpoint
C / 46°F
Humidity
88%
Altimeter
29.41" Hg
Pressure
995.92 hPa